sensor_id;sensor_type;location;lat;lon;timestamp;P1;durP1;ratioP1;P2;durP2;ratioP2
17052;SDS011;8643;48.824;11.422;2023-05-08T00:01:39;7.28;;;5.53;;
17052;SDS011;8643;48.824;11.422;2023-05-08T00:04:08;7.68;;;5.60;;
17052;SDS011;8643;48.824;11.422;2023-05-08T00:06:38;7.80;;;5.78;;
17052;SDS011;8643;48.824;11.422;2023-05-08T00:09:07;8.02;;;5.68;;
17052;SDS011;8643;48.824;11.422;2023-05-08T00:11:36;7.32;;;6.00;;
17052;SDS011;8643;48.824;11.422;2023-05-08T00:14:05;8.18;;;6.03;;
17052;SDS011;8643;48.824;11.422;2023-05-08T00:16:34;7.05;;;5.60;;
17052;SDS011;8643;48.824;11.422;2023-05-08T00:19:03;8.65;;;6.28;;
17052;SDS011;8643;48.824;11.422;2023-05-08T00:21:32;9.23;;;6.28;;
17052;SDS011;8643;48.824;11.422;2023-05-08T00:24:02;8.98;;;5.93;;
17052;SDS011;8643;48.824;11.422;2023-05-08T00:26:31;7.80;;;5.97;;
17052;SDS011;8643;48.824;11.422;2023-05-08T00:28:59;8.05;;;5.80;;
17052;SDS011;8643;48.824;11.422;2023-05-08T00:31:31;7.53;;;5.88;;
17052;SDS011;8643;48.824;11.422;2023-05-08T00:34:00;6.82;;;5.50;;
17052;SDS011;8643;48.824;11.422;2023-05-08T00:36:28;8.40;;;5.65;;
17052;SDS011;8643;48.824;11.422;2023-05-08T00:38:57;7.65;;;5.80;;
17052;SDS011;8643;48.824;11.422;2023-05-08T00:41:27;10.05;;;5.55;;
17052;SDS011;8643;48.824;11.422;2023-05-08T00:43:56;8.50;;;6.18;;
17052;SDS011;8643;48.824;11.422;2023-05-08T00:46:25;7.28;;;5.47;;
17052;SDS011;8643;48.824;11.422;2023-05-08T00:48:54;8.38;;;5.78;;
17052;SDS011;8643;48.824;11.422;2023-05-08T00:51:23;7.95;;;5.88;;
17052;SDS011;8643;48.824;11.422;2023-05-08T00:53:52;8.88;;;6.00;;
17052;SDS011;8643;48.824;11.422;2023-05-08T00:56:21;8.27;;;6.00;;
17052;SDS011;8643;48.824;11.422;2023-05-08T00:58:52;8.25;;;5.63;;
17052;SDS011;8643;48.824;11.422;2023-05-08T01:01:21;8.52;;;6.05;;
17052;SDS011;8643;48.824;11.422;2023-05-08T01:03:51;8.50;;;6.30;;
17052;SDS011;8643;48.824;11.422;2023-05-08T01:06:20;8.05;;;5.93;;
17052;SDS011;8643;48.824;11.422;2023-05-08T01:08:49;7.68;;;5.97;;
17052;SDS011;8643;48.824;11.422;2023-05-08T01:11:20;10.05;;;5.95;;
17052;SDS011;8643;48.824;11.422;2023-05-08T01:13:56;10.10;;;6.30;;
17052;SDS011;8643;48.824;11.422;2023-05-08T01:16:39;8.80;;;6.18;;
17052;SDS011;8643;48.824;11.422;2023-05-08T01:19:19;8.65;;;5.82;;
17052;SDS011;8643;48.824;11.422;2023-05-08T01:22:27;8.55;;;5.90;;
17052;SDS011;8643;48.824;11.422;2023-05-08T01:25:18;7.93;;;5.60;;
17052;SDS011;8643;48.824;11.422;2023-05-08T01:28:11;7.43;;;5.80;;
17052;SDS011;8643;48.824;11.422;2023-05-08T01:31:03;11.70;;;6.18;;
17052;SDS011;8643;48.824;11.422;2023-05-08T01:33:46;10.20;;;5.97;;
17052;SDS011;8643;48.824;11.422;2023-05-08T01:36:22;8.48;;;6.05;;
17052;SDS011;8643;48.824;11.422;2023-05-08T01:38:59;8.85;;;6.18;;
17052;SDS011;8643;48.824;11.422;2023-05-08T01:41:37;8.63;;;6.45;;
17052;SDS011;8643;48.824;11.422;2023-05-08T01:44:09;7.53;;;5.88;;
17052;SDS011;8643;48.824;11.422;2023-05-08T01:46:40;9.85;;;6.15;;
17052;SDS011;8643;48.824;11.422;2023-05-08T01:49:16;7.55;;;5.95;;
17052;SDS011;8643;48.824;11.422;2023-05-08T01:51:52;9.00;;;6.47;;
17052;SDS011;8643;48.824;11.422;2023-05-08T01:54:27;7.72;;;6.15;;
17052;SDS011;8643;48.824;11.422;2023-05-08T01:57:08;8.07;;;6.45;;
17052;SDS011;8643;48.824;11.422;2023-05-08T01:59:38;7.72;;;5.95;;
17052;SDS011;8643;48.824;11.422;2023-05-08T02:02:09;9.10;;;6.38;;
17052;SDS011;8643;48.824;11.422;2023-05-08T02:04:41;8.95;;;6.00;;
17052;SDS011;8643;48.824;11.422;2023-05-08T02:07:11;9.07;;;6.47;;
17052;SDS011;8643;48.824;11.422;2023-05-08T02:09:41;7.18;;;6.07;;
17052;SDS011;8643;48.824;11.422;2023-05-08T02:12:12;9.52;;;6.78;;
17052;SDS011;8643;48.824;11.422;2023-05-08T02:14:42;12.50;;;6.63;;
17052;SDS011;8643;48.824;11.422;2023-05-08T02:17:15;8.68;;;6.75;;
17052;SDS011;8643;48.824;11.422;2023-05-08T02:19:46;7.90;;;6.50;;
17052;SDS011;8643;48.824;11.422;2023-05-08T02:22:17;9.95;;;7.07;;
17052;SDS011;8643;48.824;11.422;2023-05-08T02:24:48;9.18;;;6.88;;
17052;SDS011;8643;48.824;11.422;2023-05-08T02:27:21;8.88;;;6.65;;
17052;SDS011;8643;48.824;11.422;2023-05-08T02:29:52;7.97;;;6.47;;
17052;SDS011;8643;48.824;11.422;2023-05-08T02:32:24;8.73;;;6.95;;
17052;SDS011;8643;48.824;11.422;2023-05-08T02:34:54;9.02;;;6.35;;
17052;SDS011;8643;48.824;11.422;2023-05-08T02:37:29;9.85;;;7.00;;
17052;SDS011;8643;48.824;11.422;2023-05-08T02:39:59;8.45;;;6.63;;
17052;SDS011;8643;48.824;11.422;2023-05-08T02:42:31;9.23;;;6.88;;
17052;SDS011;8643;48.824;11.422;2023-05-08T02:45:00;10.30;;;7.47;;
17052;SDS011;8643;48.824;11.422;2023-05-08T02:47:33;10.10;;;7.53;;
17052;SDS011;8643;48.824;11.422;2023-05-08T02:50:15;12.13;;;7.93;;
17052;SDS011;8643;48.824;11.422;2023-05-08T02:52:48;11.18;;;7.50;;
17052;SDS011;8643;48.824;11.422;2023-05-08T02:55:24;9.70;;;7.13;;
17052;SDS011;8643;48.824;11.422;2023-05-08T02:58:02;12.77;;;8.15;;
17052;SDS011;8643;48.824;11.422;2023-05-08T03:00:42;11.48;;;8.15;;
17052;SDS011;8643;48.824;11.422;2023-05-08T03:03:16;12.07;;;8.32;;
17052;SDS011;8643;48.824;11.422;2023-05-08T03:05:53;11.52;;;8.63;;
17052;SDS011;8643;48.824;11.422;2023-05-08T03:08:24;11.32;;;7.95;;
17052;SDS011;8643;48.824;11.422;2023-05-08T03:10:58;12.88;;;8.80;;
17052;SDS011;8643;48.824;11.422;2023-05-08T03:13:33;13.88;;;8.93;;
17052;SDS011;8643;48.824;11.422;2023-05-08T03:16:05;12.77;;;8.88;;
17052;SDS011;8643;48.824;11.422;2023-05-08T03:18:43;14.50;;;8.43;;
17052;SDS011;8643;48.824;11.422;2023-05-08T03:21:18;11.90;;;8.70;;
17052;SDS011;8643;48.824;11.422;2023-05-08T03:23:50;11.32;;;8.40;;
17052;SDS011;8643;48.824;11.422;2023-05-08T03:26:20;12.55;;;8.80;;
17052;SDS011;8643;48.824;11.422;2023-05-08T03:28:50;12.70;;;8.48;;
17052;SDS011;8643;48.824;11.422;2023-05-08T03:31:24;11.05;;;8.18;;
17052;SDS011;8643;48.824;11.422;2023-05-08T03:33:54;12.02;;;8.95;;
17052;SDS011;8643;48.824;11.422;2023-05-08T03:36:26;12.32;;;9.02;;
17052;SDS011;8643;48.824;11.422;2023-05-08T03:38:55;12.07;;;8.77;;
17052;SDS011;8643;48.824;11.422;2023-05-08T03:41:26;13.45;;;8.82;;
17052;SDS011;8643;48.824;11.422;2023-05-08T03:43:55;15.88;;;9.23;;
17052;SDS011;8643;48.824;11.422;2023-05-08T03:46:25;11.68;;;8.60;;
17052;SDS011;8643;48.824;11.422;2023-05-08T03:48:54;12.38;;;8.82;;
17052;SDS011;8643;48.824;11.422;2023-05-08T03:51:27;11.93;;;8.80;;
17052;SDS011;8643;48.824;11.422;2023-05-08T03:53:57;15.30;;;9.15;;
17052;SDS011;8643;48.824;11.422;2023-05-08T03:56:26;13.80;;;9.10;;
17052;SDS011;8643;48.824;11.422;2023-05-08T03:58:59;13.38;;;9.00;;
17052;SDS011;8643;48.824;11.422;2023-05-08T04:01:43;12.35;;;8.55;;
17052;SDS011;8643;48.824;11.422;2023-05-08T04:04:22;14.20;;;9.15;;
17052;SDS011;8643;48.824;11.422;2023-05-08T04:07:04;13.80;;;9.20;;
17052;SDS011;8643;48.824;11.422;2023-05-08T04:09:42;12.52;;;8.82;;
17052;SDS011;8643;48.824;11.422;2023-05-08T04:12:19;12.95;;;8.50;;
17052;SDS011;8643;48.824;11.422;2023-05-08T04:14:51;13.50;;;8.98;;
17052;SDS011;8643;48.824;11.422;2023-05-08T04:17:27;10.68;;;8.40;;
17052;SDS011;8643;48.824;11.422;2023-05-08T04:20:02;13.43;;;9.38;;
17052;SDS011;8643;48.824;11.422;2023-05-08T04:22:35;11.82;;;8.85;;
17052;SDS011;8643;48.824;11.422;2023-05-08T04:25:07;13.13;;;8.52;;
17052;SDS011;8643;48.824;11.422;2023-05-08T04:27:40;13.50;;;9.07;;
17052;SDS011;8643;48.824;11.422;2023-05-08T04:30:11;13.27;;;9.27;;
17052;SDS011;8643;48.824;11.422;2023-05-08T04:32:42;13.85;;;8.90;;
17052;SDS011;8643;48.824;11.422;2023-05-08T04:35:13;12.70;;;9.07;;
17052;SDS011;8643;48.824;11.422;2023-05-08T04:37:45;12.80;;;9.20;;
17052;SDS011;8643;48.824;11.422;2023-05-08T04:40:15;11.27;;;8.70;;
17052;SDS011;8643;48.824;11.422;2023-05-08T04:42:44;12.32;;;9.15;;
17052;SDS011;8643;48.824;11.422;2023-05-08T04:45:16;13.27;;;8.70;;
17052;SDS011;8643;48.824;11.422;2023-05-08T04:47:45;13.15;;;9.55;;
17052;SDS011;8643;48.824;11.422;2023-05-08T04:50:14;12.13;;;8.68;;
17052;SDS011;8643;48.824;11.422;2023-05-08T04:52:45;13.23;;;9.23;;
17052;SDS011;8643;48.824;11.422;2023-05-08T04:55:14;14.48;;;9.25;;
17052;SDS011;8643;48.824;11.422;2023-05-08T04:57:43;11.80;;;8.68;;
17052;SDS011;8643;48.824;11.422;2023-05-08T05:00:13;11.57;;;8.75;;
17052;SDS011;8643;48.824;11.422;2023-05-08T05:02:44;13.73;;;8.68;;
17052;SDS011;8643;48.824;11.422;2023-05-08T05:05:13;13.57;;;8.82;;
17052;SDS011;8643;48.824;11.422;2023-05-08T05:07:42;10.85;;;8.48;;
17052;SDS011;8643;48.824;11.422;2023-05-08T05:10:11;12.85;;;9.27;;
17052;SDS011;8643;48.824;11.422;2023-05-08T05:12:40;11.50;;;8.32;;
17052;SDS011;8643;48.824;11.422;2023-05-08T05:15:10;12.48;;;8.80;;
17052;SDS011;8643;48.824;11.422;2023-05-08T05:17:40;10.40;;;8.20;;
17052;SDS011;8643;48.824;11.422;2023-05-08T05:20:09;11.90;;;9.00;;
17052;SDS011;8643;48.824;11.422;2023-05-08T05:22:39;13.75;;;9.10;;
17052;SDS011;8643;48.824;11.422;2023-05-08T05:25:08;13.63;;;8.77;;
17052;SDS011;8643;48.824;11.422;2023-05-08T05:27:39;12.23;;;8.77;;
17052;SDS011;8643;48.824;11.422;2023-05-08T05:30:09;10.85;;;8.23;;
17052;SDS011;8643;48.824;11.422;2023-05-08T05:32:40;12.70;;;8.82;;
17052;SDS011;8643;48.824;11.422;2023-05-08T05:35:08;11.63;;;8.48;;
17052;SDS011;8643;48.824;11.422;2023-05-08T05:37:39;13.50;;;8.95;;
17052;SDS011;8643;48.824;11.422;2023-05-08T05:40:08;10.52;;;7.90;;
17052;SDS011;8643;48.824;11.422;2023-05-08T05:42:40;11.55;;;8.45;;
17052;SDS011;8643;48.824;11.422;2023-05-08T05:45:14;11.20;;;8.52;;
17052;SDS011;8643;48.824;11.422;2023-05-08T05:47:43;12.23;;;8.65;;
17052;SDS011;8643;48.824;11.422;2023-05-08T05:50:17;10.65;;;8.18;;
17052;SDS011;8643;48.824;11.422;2023-05-08T05:52:48;14.57;;;9.20;;
17052;SDS011;8643;48.824;11.422;2023-05-08T05:55:18;11.70;;;8.73;;
17052;SDS011;8643;48.824;11.422;2023-05-08T05:57:49;13.95;;;8.75;;
17052;SDS011;8643;48.824;11.422;2023-05-08T06:00:18;12.27;;;8.60;;
17052;SDS011;8643;48.824;11.422;2023-05-08T06:02:52;13.07;;;9.25;;
17052;SDS011;8643;48.824;11.422;2023-05-08T06:05:21;11.02;;;8.13;;
17052;SDS011;8643;48.824;11.422;2023-05-08T06:07:50;11.98;;;8.63;;
17052;SDS011;8643;48.824;11.422;2023-05-08T06:10:19;14.98;;;8.82;;
17052;SDS011;8643;48.824;11.422;2023-05-08T06:12:49;13.13;;;9.57;;
17052;SDS011;8643;48.824;11.422;2023-05-08T06:15:20;11.15;;;8.98;;
17052;SDS011;8643;48.824;11.422;2023-05-08T06:17:48;11.90;;;8.75;;
17052;SDS011;8643;48.824;11.422;2023-05-08T06:20:18;11.38;;;8.98;;
17052;SDS011;8643;48.824;11.422;2023-05-08T06:22:46;12.35;;;9.68;;
17052;SDS011;8643;48.824;11.422;2023-05-08T06:25:15;13.57;;;9.25;;
17052;SDS011;8643;48.824;11.422;2023-05-08T06:27:45;11.13;;;8.98;;
17052;SDS011;8643;48.824;11.422;2023-05-08T06:30:15;12.30;;;9.07;;
17052;SDS011;8643;48.824;11.422;2023-05-08T06:32:43;12.40;;;9.20;;
17052;SDS011;8643;48.824;11.422;2023-05-08T06:35:11;12.80;;;8.95;;
17052;SDS011;8643;48.824;11.422;2023-05-08T06:37:41;13.93;;;9.43;;
17052;SDS011;8643;48.824;11.422;2023-05-08T06:40:10;11.75;;;9.00;;
17052;SDS011;8643;48.824;11.422;2023-05-08T06:42:40;12.45;;;8.75;;
17052;SDS011;8643;48.824;11.422;2023-05-08T06:45:10;14.65;;;9.20;;
17052;SDS011;8643;48.824;11.422;2023-05-08T06:47:40;11.88;;;9.02;;
17052;SDS011;8643;48.824;11.422;2023-05-08T06:50:09;13.57;;;9.57;;
17052;SDS011;8643;48.824;11.422;2023-05-08T06:52:38;12.75;;;8.80;;
17052;SDS011;8643;48.824;11.422;2023-05-08T06:55:07;12.48;;;9.25;;
17052;SDS011;8643;48.824;11.422;2023-05-08T06:57:36;10.45;;;8.80;;
17052;SDS011;8643;48.824;11.422;2023-05-08T07:00:06;11.38;;;9.25;;
17052;SDS011;8643;48.824;11.422;2023-05-08T07:02:35;11.93;;;8.88;;
17052;SDS011;8643;48.824;11.422;2023-05-08T07:05:06;13.60;;;9.52;;
17052;SDS011;8643;48.824;11.422;2023-05-08T07:07:35;12.77;;;9.57;;
17052;SDS011;8643;48.824;11.422;2023-05-08T07:10:04;10.77;;;8.65;;
17052;SDS011;8643;48.824;11.422;2023-05-08T07:12:33;12.38;;;9.38;;
17052;SDS011;8643;48.824;11.422;2023-05-08T07:15:02;12.18;;;9.80;;
17052;SDS011;8643;48.824;11.422;2023-05-08T07:17:50;12.85;;;9.57;;
17052;SDS011;8643;48.824;11.422;2023-05-08T07:20:20;11.60;;;9.38;;
17052;SDS011;8643;48.824;11.422;2023-05-08T07:22:50;14.90;;;10.40;;
17052;SDS011;8643;48.824;11.422;2023-05-08T07:25:18;14.65;;;9.68;;
17052;SDS011;8643;48.824;11.422;2023-05-08T07:27:47;12.63;;;9.90;;
17052;SDS011;8643;48.824;11.422;2023-05-08T07:30:16;13.98;;;10.23;;
17052;SDS011;8643;48.824;11.422;2023-05-08T07:32:44;14.60;;;11.05;;
17052;SDS011;8643;48.824;11.422;2023-05-08T07:35:14;12.23;;;10.10;;
17052;SDS011;8643;48.824;11.422;2023-05-08T07:37:44;14.27;;;11.15;;
17052;SDS011;8643;48.824;11.422;2023-05-08T07:40:13;14.35;;;10.43;;
17052;SDS011;8643;48.824;11.422;2023-05-08T07:42:43;15.88;;;11.00;;
17052;SDS011;8643;48.824;11.422;2023-05-08T07:45:12;15.40;;;11.18;;
17052;SDS011;8643;48.824;11.422;2023-05-08T07:47:48;15.38;;;12.65;;
17052;SDS011;8643;48.824;11.422;2023-05-08T07:50:18;17.15;;;13.05;;
17052;SDS011;8643;48.824;11.422;2023-05-08T07:52:48;16.60;;;13.07;;
17052;SDS011;8643;48.824;11.422;2023-05-08T07:55:18;21.65;;;13.65;;
17052;SDS011;8643;48.824;11.422;2023-05-08T07:57:47;17.48;;;12.55;;
17052;SDS011;8643;48.824;11.422;2023-05-08T08:00:16;15.30;;;11.30;;
17052;SDS011;8643;48.824;11.422;2023-05-08T08:02:46;17.60;;;14.55;;
17052;SDS011;8643;48.824;11.422;2023-05-08T08:05:14;19.67;;;13.68;;
17052;SDS011;8643;48.824;11.422;2023-05-08T08:07:43;17.98;;;14.30;;
17052;SDS011;8643;48.824;11.422;2023-05-08T08:10:13;17.48;;;13.70;;
17052;SDS011;8643;48.824;11.422;2023-05-08T08:12:42;16.48;;;12.52;;
17052;SDS011;8643;48.824;11.422;2023-05-08T08:15:10;16.15;;;12.85;;
17052;SDS011;8643;48.824;11.422;2023-05-08T08:17:39;16.45;;;13.13;;
17052;SDS011;8643;48.824;11.422;2023-05-08T08:20:08;17.63;;;13.25;;
17052;SDS011;8643;48.824;11.422;2023-05-08T08:22:37;17.20;;;13.95;;
17052;SDS011;8643;48.824;11.422;2023-05-08T08:25:06;17.33;;;13.65;;
17052;SDS011;8643;48.824;11.422;2023-05-08T08:27:37;17.48;;;14.48;;
17052;SDS011;8643;48.824;11.422;2023-05-08T08:30:07;19.80;;;14.68;;
17052;SDS011;8643;48.824;11.422;2023-05-08T08:32:45;20.38;;;15.57;;
17052;SDS011;8643;48.824;11.422;2023-05-08T08:35:13;20.58;;;16.10;;
17052;SDS011;8643;48.824;11.422;2023-05-08T08:37:43;17.67;;;14.45;;
17052;SDS011;8643;48.824;11.422;2023-05-08T08:40:11;18.35;;;14.25;;
17052;SDS011;8643;48.824;11.422;2023-05-08T08:42:42;20.67;;;14.05;;
17052;SDS011;8643;48.824;11.422;2023-05-08T08:45:10;18.45;;;13.55;;
17052;SDS011;8643;48.824;11.422;2023-05-08T08:47:40;18.73;;;15.27;;
17052;SDS011;8643;48.824;11.422;2023-05-08T08:50:12;18.45;;;14.57;;
17052;SDS011;8643;48.824;11.422;2023-05-08T08:52:43;17.92;;;14.48;;
17052;SDS011;8643;48.824;11.422;2023-05-08T08:55:19;16.88;;;13.75;;
17052;SDS011;8643;48.824;11.422;2023-05-08T08:57:57;16.65;;;13.38;;
17052;SDS011;8643;48.824;11.422;2023-05-08T09:00:34;18.65;;;15.18;;
17052;SDS011;8643;48.824;11.422;2023-05-08T09:03:04;16.83;;;13.90;;
17052;SDS011;8643;48.824;11.422;2023-05-08T09:05:34;17.65;;;12.70;;
17052;SDS011;8643;48.824;11.422;2023-05-08T09:08:03;15.57;;;12.18;;
17052;SDS011;8643;48.824;11.422;2023-05-08T09:10:33;20.15;;;12.27;;
17052;SDS011;8643;48.824;11.422;2023-05-08T09:13:03;29.23;;;12.35;;
17052;SDS011;8643;48.824;11.422;2023-05-08T09:15:32;15.20;;;11.25;;
17052;SDS011;8643;48.824;11.422;2023-05-08T09:18:01;14.40;;;10.70;;
17052;SDS011;8643;48.824;11.422;2023-05-08T09:20:31;13.10;;;11.07;;
17052;SDS011;8643;48.824;11.422;2023-05-08T09:23:00;19.25;;;11.35;;
17052;SDS011;8643;48.824;11.422;2023-05-08T09:25:41;17.60;;;11.82;;
17052;SDS011;8643;48.824;11.422;2023-05-08T09:28:17;18.02;;;11.80;;
17052;SDS011;8643;48.824;11.422;2023-05-08T09:30:49;18.98;;;12.38;;
17052;SDS011;8643;48.824;11.422;2023-05-08T09:33:19;15.85;;;12.80;;
17052;SDS011;8643;48.824;11.422;2023-05-08T09:35:48;16.15;;;14.43;;
17052;SDS011;8643;48.824;11.422;2023-05-08T09:38:36;13.63;;;12.15;;
17052;SDS011;8643;48.824;11.422;2023-05-08T09:41:08;15.75;;;12.07;;
17052;SDS011;8643;48.824;11.422;2023-05-08T09:43:40;14.60;;;11.85;;
17052;SDS011;8643;48.824;11.422;2023-05-08T09:46:20;15.65;;;11.77;;
17052;SDS011;8643;48.824;11.422;2023-05-08T09:48:51;15.27;;;11.73;;
17052;SDS011;8643;48.824;11.422;2023-05-08T09:51:21;29.23;;;12.20;;
17052;SDS011;8643;48.824;11.422;2023-05-08T09:53:52;13.90;;;11.60;;
17052;SDS011;8643;48.824;11.422;2023-05-08T09:56:28;12.52;;;10.82;;
17052;SDS011;8643;48.824;11.422;2023-05-08T09:59:03;12.73;;;11.05;;
17052;SDS011;8643;48.824;11.422;2023-05-08T10:01:48;20.67;;;11.50;;
17052;SDS011;8643;48.824;11.422;2023-05-08T10:04:17;17.95;;;10.75;;
17052;SDS011;8643;48.824;11.422;2023-05-08T10:06:57;24.95;;;10.77;;
17052;SDS011;8643;48.824;11.422;2023-05-08T10:09:27;17.88;;;10.48;;
17052;SDS011;8643;48.824;11.422;2023-05-08T10:12:15;12.98;;;11.10;;
17052;SDS011;8643;48.824;11.422;2023-05-08T10:14:45;26.70;;;12.73;;
17052;SDS011;8643;48.824;11.422;2023-05-08T10:17:13;15.32;;;11.18;;
17052;SDS011;8643;48.824;11.422;2023-05-08T10:19:47;17.38;;;13.77;;
17052;SDS011;8643;48.824;11.422;2023-05-08T10:22:20;12.25;;;10.48;;
17052;SDS011;8643;48.824;11.422;2023-05-08T10:24:51;14.63;;;10.95;;
17052;SDS011;8643;48.824;11.422;2023-05-08T10:27:27;13.32;;;10.07;;
17052;SDS011;8643;48.824;11.422;2023-05-08T10:30:03;17.80;;;10.35;;
17052;SDS011;8643;48.824;11.422;2023-05-08T10:32:35;30.35;;;18.30;;
17052;SDS011;8643;48.824;11.422;2023-05-08T10:35:09;27.05;;;17.13;;
17052;SDS011;8643;48.824;11.422;2023-05-08T10:37:38;15.25;;;10.82;;
17052;SDS011;8643;48.824;11.422;2023-05-08T10:40:09;13.43;;;10.25;;
17052;SDS011;8643;48.824;11.422;2023-05-08T10:42:38;14.07;;;10.75;;
17052;SDS011;8643;48.824;11.422;2023-05-08T10:45:09;10.75;;;9.38;;
17052;SDS011;8643;48.824;11.422;2023-05-08T10:47:44;13.50;;;11.00;;
17052;SDS011;8643;48.824;11.422;2023-05-08T10:50:30;14.30;;;11.65;;
17052;SDS011;8643;48.824;11.422;2023-05-08T10:53:10;16.15;;;10.77;;
17052;SDS011;8643;48.824;11.422;2023-05-08T10:55:44;16.25;;;9.75;;
17052;SDS011;8643;48.824;11.422;2023-05-08T10:58:27;11.32;;;9.50;;
17052;SDS011;8643;48.824;11.422;2023-05-08T11:01:14;17.00;;;11.00;;
17052;SDS011;8643;48.824;11.422;2023-05-08T11:03:44;13.73;;;9.60;;
17052;SDS011;8643;48.824;11.422;2023-05-08T11:06:17;13.68;;;9.85;;
17052;SDS011;8643;48.824;11.422;2023-05-08T11:09:17;11.77;;;10.20;;
17052;SDS011;8643;48.824;11.422;2023-05-08T11:11:50;11.70;;;9.82;;
17052;SDS011;8643;48.824;11.422;2023-05-08T11:14:27;12.27;;;9.48;;
17052;SDS011;8643;48.824;11.422;2023-05-08T11:17:05;13.23;;;9.43;;
17052;SDS011;8643;48.824;11.422;2023-05-08T11:19:36;11.90;;;10.10;;
17052;SDS011;8643;48.824;11.422;2023-05-08T11:22:15;14.25;;;10.20;;
17052;SDS011;8643;48.824;11.422;2023-05-08T11:24:51;13.02;;;8.93;;
17052;SDS011;8643;48.824;11.422;2023-05-08T11:27:33;11.13;;;9.27;;
17052;SDS011;8643;48.824;11.422;2023-05-08T11:35:59;11.68;;;10.10;;
17052;SDS011;8643;48.824;11.422;2023-05-08T11:38:38;14.80;;;9.48;;
17052;SDS011;8643;48.824;11.422;2023-05-08T11:41:09;11.75;;;9.50;;
17052;SDS011;8643;48.824;11.422;2023-05-08T11:46:49;11.82;;;9.43;;
17052;SDS011;8643;48.824;11.422;2023-05-08T11:49:22;13.40;;;10.00;;
17052;SDS011;8643;48.824;11.422;2023-05-08T11:51:56;15.50;;;10.82;;
17052;SDS011;8643;48.824;11.422;2023-05-08T11:54:28;10.73;;;9.35;;
17052;SDS011;8643;48.824;11.422;2023-05-08T11:56:57;11.40;;;9.57;;
17052;SDS011;8643;48.824;11.422;2023-05-08T11:59:27;14.43;;;10.35;;
17052;SDS011;8643;48.824;11.422;2023-05-08T12:02:01;12.07;;;9.95;;
17052;SDS011;8643;48.824;11.422;2023-05-08T12:04:43;14.60;;;9.85;;
17052;SDS011;8643;48.824;11.422;2023-05-08T12:07:13;12.35;;;8.93;;
17052;SDS011;8643;48.824;11.422;2023-05-08T12:09:42;11.27;;;8.90;;
17052;SDS011;8643;48.824;11.422;2023-05-08T12:12:14;11.15;;;9.57;;
17052;SDS011;8643;48.824;11.422;2023-05-08T12:14:42;10.57;;;9.20;;
17052;SDS011;8643;48.824;11.422;2023-05-08T12:17:15;11.63;;;9.35;;
17052;SDS011;8643;48.824;11.422;2023-05-08T12:19:46;10.55;;;8.98;;
17052;SDS011;8643;48.824;11.422;2023-05-08T12:22:15;14.65;;;9.23;;
17052;SDS011;8643;48.824;11.422;2023-05-08T12:24:43;12.45;;;9.30;;
17052;SDS011;8643;48.824;11.422;2023-05-08T12:27:12;19.58;;;8.68;;
17052;SDS011;8643;48.824;11.422;2023-05-08T12:29:43;11.07;;;8.73;;
17052;SDS011;8643;48.824;11.422;2023-05-08T12:32:12;13.50;;;8.45;;
17052;SDS011;8643;48.824;11.422;2023-05-08T12:34:41;11.18;;;8.73;;
17052;SDS011;8643;48.824;11.422;2023-05-08T12:37:11;12.90;;;8.77;;
17052;SDS011;8643;48.824;11.422;2023-05-08T12:39:51;8.98;;;7.97;;
17052;SDS011;8643;48.824;11.422;2023-05-08T12:42:19;10.00;;;7.43;;
17052;SDS011;8643;48.824;11.422;2023-05-08T12:44:51;9.52;;;7.63;;
17052;SDS011;8643;48.824;11.422;2023-05-08T12:47:20;10.25;;;7.80;;
17052;SDS011;8643;48.824;11.422;2023-05-08T12:49:48;11.30;;;8.02;;
17052;SDS011;8643;48.824;11.422;2023-05-08T12:52:19;10.98;;;8.35;;
17052;SDS011;8643;48.824;11.422;2023-05-08T12:54:50;16.63;;;8.10;;
17052;SDS011;8643;48.824;11.422;2023-05-08T12:57:19;38.53;;;8.77;;
17052;SDS011;8643;48.824;11.422;2023-05-08T12:59:48;18.05;;;8.18;;
17052;SDS011;8643;48.824;11.422;2023-05-08T13:02:17;31.63;;;9.65;;
17052;SDS011;8643;48.824;11.422;2023-05-08T13:04:52;11.13;;;8.13;;
17052;SDS011;8643;48.824;11.422;2023-05-08T13:07:23;12.05;;;8.55;;
17052;SDS011;8643;48.824;11.422;2023-05-08T13:09:58;12.63;;;8.57;;
17052;SDS011;8643;48.824;11.422;2023-05-08T13:12:30;13.98;;;8.15;;
17052;SDS011;8643;48.824;11.422;2023-05-08T13:14:58;10.25;;;8.48;;
17052;SDS011;8643;48.824;11.422;2023-05-08T13:17:30;13.75;;;8.10;;
17052;SDS011;8643;48.824;11.422;2023-05-08T13:19:58;37.42;;;10.45;;
17052;SDS011;8643;48.824;11.422;2023-05-08T13:22:32;19.35;;;9.23;;
17052;SDS011;8643;48.824;11.422;2023-05-08T13:25:01;15.80;;;9.27;;
17052;SDS011;8643;48.824;11.422;2023-05-08T13:27:30;12.32;;;9.32;;
17052;SDS011;8643;48.824;11.422;2023-05-08T13:29:59;12.15;;;8.75;;
17052;SDS011;8643;48.824;11.422;2023-05-08T13:32:27;13.43;;;8.35;;
17052;SDS011;8643;48.824;11.422;2023-05-08T13:34:56;11.50;;;8.85;;
17052;SDS011;8643;48.824;11.422;2023-05-08T13:37:26;14.18;;;8.57;;
17052;SDS011;8643;48.824;11.422;2023-05-08T13:39:56;11.60;;;8.07;;
17052;SDS011;8643;48.824;11.422;2023-05-08T13:42:25;9.77;;;7.93;;
17052;SDS011;8643;48.824;11.422;2023-05-08T13:44:53;10.27;;;8.20;;
17052;SDS011;8643;48.824;11.422;2023-05-08T13:47:22;13.52;;;8.77;;
17052;SDS011;8643;48.824;11.422;2023-05-08T13:49:51;12.18;;;8.32;;
17052;SDS011;8643;48.824;11.422;2023-05-08T13:52:20;9.13;;;7.50;;
17052;SDS011;8643;48.824;11.422;2023-05-08T13:54:48;11.20;;;7.95;;
17052;SDS011;8643;48.824;11.422;2023-05-08T13:57:18;11.63;;;8.73;;
17052;SDS011;8643;48.824;11.422;2023-05-08T13:59:47;13.25;;;8.65;;
17052;SDS011;8643;48.824;11.422;2023-05-08T14:02:16;9.65;;;8.02;;
17052;SDS011;8643;48.824;11.422;2023-05-08T14:04:45;22.10;;;8.35;;
17052;SDS011;8643;48.824;11.422;2023-05-08T14:07:13;17.13;;;8.70;;
17052;SDS011;8643;48.824;11.422;2023-05-08T14:09:44;13.10;;;8.30;;
17052;SDS011;8643;48.824;11.422;2023-05-08T14:12:13;16.67;;;8.95;;
17052;SDS011;8643;48.824;11.422;2023-05-08T14:14:43;16.50;;;9.15;;
17052;SDS011;8643;48.824;11.422;2023-05-08T14:17:11;14.48;;;9.07;;
17052;SDS011;8643;48.824;11.422;2023-05-08T14:19:40;144.68;;;14.85;;
17052;SDS011;8643;48.824;11.422;2023-05-08T14:22:09;13.18;;;9.40;;
17052;SDS011;8643;48.824;11.422;2023-05-08T14:24:38;14.05;;;9.02;;
17052;SDS011;8643;48.824;11.422;2023-05-08T14:27:06;13.18;;;9.38;;
17052;SDS011;8643;48.824;11.422;2023-05-08T14:29:35;13.80;;;9.13;;
17052;SDS011;8643;48.824;11.422;2023-05-08T14:32:05;12.05;;;9.68;;
17052;SDS011;8643;48.824;11.422;2023-05-08T14:34:34;11.75;;;9.38;;
17052;SDS011;8643;48.824;11.422;2023-05-08T14:37:03;13.82;;;9.75;;
17052;SDS011;8643;48.824;11.422;2023-05-08T14:39:32;14.77;;;10.02;;
17052;SDS011;8643;48.824;11.422;2023-05-08T14:42:00;12.68;;;10.15;;
17052;SDS011;8643;48.824;11.422;2023-05-08T14:44:32;15.20;;;9.65;;
17052;SDS011;8643;48.824;11.422;2023-05-08T14:47:01;13.20;;;10.38;;
17052;SDS011;8643;48.824;11.422;2023-05-08T14:49:31;13.48;;;10.20;;
17052;SDS011;8643;48.824;11.422;2023-05-08T14:52:02;12.75;;;10.05;;
17052;SDS011;8643;48.824;11.422;2023-05-08T14:54:32;14.65;;;9.80;;
17052;SDS011;8643;48.824;11.422;2023-05-08T14:57:01;13.55;;;10.20;;
17052;SDS011;8643;48.824;11.422;2023-05-08T14:59:30;11.60;;;10.00;;
17052;SDS011;8643;48.824;11.422;2023-05-08T15:01:59;13.88;;;10.35;;
17052;SDS011;8643;48.824;11.422;2023-05-08T15:04:27;12.07;;;9.23;;
17052;SDS011;8643;48.824;11.422;2023-05-08T15:06:57;11.45;;;9.25;;
17052;SDS011;8643;48.824;11.422;2023-05-08T15:09:26;12.45;;;9.02;;